Time;durP1;ratioP1;P1;durP2;ratioP2;P2;SDS_P1;SDS_P2;PMS_P1;PMS_P2;Temp;Humidity;BMP_temperature;BMP_pressure;BME280_temperature;BME280_humidity;BME280_pressure;Samples;Min_cycle;Max_cycle;Signal;HPM_P1;HPM_P2
2021/07/26 00:00:45;;;;;;;12.02;6.55;;;;;;;21.43;44.96;95209.50;4954096;29;20035;-78
2021/07/26 00:03:10;;;;;;;10.07;5.97;;;;;;;21.39;45.01;95192.66;4954725;29;20043;-76
2021/07/26 00:05:36;;;;;;;10.57;6.60;;;;;;;21.37;45.01;95186.09;4953475;29;20039;-80
2021/07/26 00:08:01;;;;;;;18.13;6.65;;;;;;;21.33;45.35;95188.53;4969002;23;20043;-80
2021/07/26 00:10:26;;;;;;;16.88;6.60;;;;;;;21.36;45.29;95193.25;4956072;29;20058;-80
2021/07/26 00:12:52;;;;;;;13.43;5.80;;;;;;;21.35;44.99;95189.03;4919845;29;20032;-80
2021/07/26 00:15:17;;;;;;;8.63;5.10;;;;;;;21.33;45.04;95191.19;4936845;29;20030;-80
2021/07/26 00:17:43;;;;;;;8.27;6.00;;;;;;;21.26;45.10;95182.81;4920437;29;20407;-80
2021/07/26 00:20:10;;;;;;;10.57;5.93;;;;;;;21.25;45.49;95186.53;4937627;29;20139;-80
2021/07/26 00:22:39;;;;;;;9.55;4.93;;;;;;;21.26;45.19;95196.03;4937742;29;20396;-79
2021/07/26 00:25:08;;;;;;;9.43;5.45;;;;;;;21.24;45.65;95198.16;4935747;29;20485;-80
2021/07/26 00:27:34;;;;;;;8.60;5.75;;;;;;;21.18;45.44;95208.06;4935735;29;20042;-80
2021/07/26 00:29:59;;;;;;;8.05;5.72;;;;;;;21.12;46.05;95206.53;4920457;29;20032;-79
2021/07/26 00:32:28;;;;;;;6.93;5.10;;;;;;;21.09;46.07;95203.69;4920652;29;20103;-80
2021/07/26 00:34:53;;;;;;;11.88;5.15;;;;;;;21.11;46.03;95212.13;4936490;29;20549;-80
2021/07/26 00:37:19;;;;;;;12.13;4.82;;;;;;;21.09;45.99;95216.91;4938291;29;20035;-80
2021/07/26 00:39:45;;;;;;;7.70;4.53;;;;;;;21.07;46.15;95216.41;4905029;29;20165;-80
2021/07/26 00:42:10;;;;;;;6.38;5.03;;;;;;;21.07;46.29;95203.19;4904662;29;20392;-79
2021/07/26 00:44:36;;;;;;;9.65;4.93;;;;;;;21.02;46.26;95201.44;4941590;29;20039;-79
2021/07/26 00:47:01;;;;;;;11.40;4.78;;;;;;;21.04;46.31;95207.22;4942598;29;20039;-80
2021/07/26 00:49:27;;;;;;;9.40;4.57;;;;;;;21.12;46.16;95214.47;4906249;29;20051;-80
2021/07/26 00:51:54;;;;;;;16.95;4.93;;;;;;;21.02;46.48;95208.56;4940660;29;20032;-79
2021/07/26 00:54:21;;;;;;;12.27;3.90;;;;;;;20.99;46.64;95207.28;4939986;29;20156;-80
2021/07/26 00:56:46;;;;;;;8.60;4.20;;;;;;;20.97;46.65;95207.56;4941008;29;20069;-80
2021/07/26 00:59:18;;;;;;;8.15;4.15;;;;;;;21.03;46.46;95207.50;4938886;29;20028;-79
2021/07/26 01:01:43;;;;;;;11.90;4.83;;;;;;;20.97;46.78;95207.56;4955553;23;20109;-79
2021/07/26 01:04:09;;;;;;;5.45;4.43;;;;;;;20.90;47.04;95207.13;4943125;29;20035;-79
2021/07/26 01:06:34;;;;;;;12.60;3.92;;;;;;;20.91;47.00;95198.13;4942709;29;20082;-79
2021/07/26 01:09:00;;;;;;;12.63;4.45;;;;;;;20.86;46.90;95192.94;4927374;29;20035;-79
2021/07/26 01:11:26;;;;;;;9.18;3.70;;;;;;;20.85;47.04;95194.00;4926466;29;20032;-79
2021/07/26 01:13:51;;;;;;;9.25;3.70;;;;;;;20.81;46.96;95182.41;4960003;29;20058;-79
2021/07/26 01:16:17;;;;;;;9.73;4.00;;;;;;;20.82;47.28;95180.56;4936764;29;20487;-79
2021/07/26 01:18:42;;;;;;;5.80;3.85;;;;;;;20.90;47.00;95186.00;4959665;28;20455;-79
2021/07/26 01:21:09;;;;;;;13.15;4.35;;;;;;;20.93;46.89;95189.91;4959392;28;20042;-79
2021/07/26 01:23:53;;;;;;;8.95;3.97;;;;;;;21.03;46.80;95194.28;4942590;29;20039;-79
2021/07/26 01:26:20;;;;;;;11.32;4.20;;;;;;;21.01;46.65;95196.44;4959761;29;20035;-79
2021/07/26 01:28:47;;;;;;;7.85;4.00;;;;;;;21.07;46.58;95196.06;4929791;23;20051;-79
2021/07/26 01:31:13;;;;;;;7.30;3.72;;;;;;;21.09;46.54;95207.13;4979561;23;20245;-79
2021/07/26 01:33:39;;;;;;;10.27;4.45;;;;;;;21.05;46.68;95215.94;4959809;29;20058;-77
2021/07/26 01:36:05;;;;;;;6.07;5.00;;;;;;;21.10;46.32;95213.97;4959332;29;20027;-79
2021/07/26 01:38:30;;;;;;;6.88;3.92;;;;;;;21.08;46.53;95207.41;4959707;29;20570;-78
2021/07/26 01:41:03;;;;;;;7.63;4.20;;;;;;;21.15;46.38;95207.81;4942640;29;20071;-79
2021/07/26 01:43:32;;;;;;;11.32;4.32;;;;;;;21.12;46.46;95219.75;4912186;29;20023;-79
2021/07/26 01:46:10;;;;;;;6.00;4.30;;;;;;;21.19;46.41;95208.84;4946855;29;20043;-77
2021/07/26 01:48:38;;;;;;;9.40;5.72;;;;;;;21.27;47.47;95222.19;4959896;29;20506;-79
2021/07/26 01:51:12;;;;;;;8.85;5.05;;;;;;;21.28;47.91;95228.28;4959623;29;20463;-79
2021/07/26 01:53:37;;;;;;;8.82;5.70;;;;;;;21.24;48.24;95227.25;4911115;29;20180;-79
2021/07/26 01:56:03;;;;;;;18.48;7.68;;;;;;;21.21;48.13;95233.13;4924051;29;20027;-79
2021/07/26 01:58:28;;;;;;;17.83;6.25;;;;;;;21.15;48.40;95231.63;4941653;29;20031;-79
2021/07/26 02:00:54;;;;;;;10.57;6.30;;;;;;;21.06;48.19;95223.56;4956864;29;20035;-79
2021/07/26 02:03:19;;;;;;;9.65;5.80;;;;;;;21.01;48.57;95221.00;4959375;29;20031;-79
2021/07/26 02:05:44;;;;;;;9.23;6.15;;;;;;;20.94;48.61;95224.00;4958808;29;20034;-79
2021/07/26 02:08:10;;;;;;;15.93;6.22;;;;;;;20.84;48.66;95229.44;4942062;29;20031;-79
2021/07/26 02:10:36;;;;;;;9.90;5.88;;;;;;;20.79;48.66;95236.63;4942037;29;20027;-79
2021/07/26 02:13:02;;;;;;;10.40;5.63;;;;;;;20.72;48.84;95246.78;4924828;29;20082;-79
2021/07/26 02:15:27;;;;;;;8.88;5.93;;;;;;;20.65;49.28;95249.75;4959171;29;20447;-79
2021/07/26 02:17:52;;;;;;;15.23;6.55;;;;;;;20.62;49.45;95260.91;4959303;29;20055;-79
2021/07/26 02:20:18;;;;;;;10.20;5.90;;;;;;;20.58;49.56;95262.56;4959426;29;20466;-79
2021/07/26 02:22:44;;;;;;;19.98;6.38;;;;;;;20.49;49.72;95253.66;4958896;29;20027;-79
2021/07/26 02:25:10;;;;;;;12.95;6.47;;;;;;;20.47;50.01;95251.31;4956852;29;20027;-79
2021/07/26 02:27:36;;;;;;;19.27;6.82;;;;;;;20.37;50.18;95252.22;4958778;28;20090;-79
2021/07/26 02:30:01;;;;;;;10.35;6.57;;;;;;;20.32;50.67;95259.38;4957613;28;20035;-79
2021/07/26 02:32:26;;;;;;;10.60;6.20;;;;;;;20.31;50.49;95257.81;4958043;28;20031;-79
2021/07/26 02:34:52;;;;;;;10.98;6.03;;;;;;;20.29;50.65;95263.38;4958543;29;20035;-79
2021/07/26 02:37:17;;;;;;;16.42;6.00;;;;;;;20.30;50.68;95266.81;4957344;29;20038;-79
2021/07/26 02:39:49;;;;;;;11.43;5.97;;;;;;;20.26;50.71;95269.22;4957880;29;20478;-79
2021/07/26 02:42:17;;;;;;;21.52;6.68;;;;;;;20.25;50.84;95269.50;4958665;29;20062;-79
2021/07/26 02:44:42;;;;;;;14.95;6.57;;;;;;;20.25;51.24;95270.31;4958897;29;20031;-79
2021/07/26 02:47:08;;;;;;;10.52;6.25;;;;;;;20.22;51.02;95268.22;4963646;29;20035;-79
2021/07/26 02:49:33;;;;;;;19.15;6.03;;;;;;;20.20;51.38;95262.44;4958595;29;20031;-79
2021/07/26 02:51:59;;;;;;;11.00;6.43;;;;;;;20.16;51.21;95261.41;4958966;29;20586;-78
2021/07/26 02:54:24;;;;;;;11.07;5.85;;;;;;;20.17;51.32;95262.19;4958927;29;20031;-79
2021/07/26 02:56:49;;;;;;;18.27;6.07;;;;;;;20.14;51.39;95263.53;4941543;29;20039;-79
2021/07/26 02:59:24;;;;;;;28.40;8.93;;;;;;;20.10;51.88;95265.19;4958912;29;20410;-79
2021/07/26 03:01:51;;;;;;;27.95;7.60;;;;;;;20.06;52.09;95272.09;4958589;28;20023;-79
2021/07/26 03:04:17;;;;;;;24.73;7.00;;;;;;;20.03;52.37;95273.44;4959072;29;20082;-79
2021/07/26 03:06:42;;;;;;;26.75;7.05;;;;;;;20.02;52.61;95268.44;4941895;29;20078;-79
2021/07/26 03:09:08;;;;;;;24.95;8.60;;;;;;;20.01;52.88;95272.13;4947007;29;20043;-77
2021/07/26 03:11:33;;;;;;;34.08;8.90;;;;;;;19.97;52.86;95286.97;4990473;23;20039;-77
2021/07/26 03:13:59;;;;;;;27.25;10.10;;;;;;;19.97;53.30;95284.31;4969039;29;20042;-77
2021/07/26 03:16:24;;;;;;;30.90;10.10;;;;;;;19.98;53.28;95285.88;4959199;29;20046;-78
2021/07/26 03:18:50;;;;;;;39.60;11.38;;;;;;;20.00;53.20;95291.69;4955139;29;20064;-78
2021/07/26 03:21:16;;;;;;;44.88;10.65;;;;;;;20.01;53.16;95283.50;4954510;28;20035;-78
2021/07/26 03:23:41;;;;;;;52.40;12.38;;;;;;;20.02;52.93;95282.44;4921474;29;20091;-78
2021/07/26 03:26:07;;;;;;;35.83;10.07;;;;;;;20.05;52.69;95283.72;4956588;29;20036;-79
2021/07/26 03:28:33;;;;;;;31.25;9.75;;;;;;;20.07;52.84;95282.38;4956723;29;20165;-79
2021/07/26 03:30:59;;;;;;;28.98;8.75;;;;;;;20.09;52.68;95282.88;4958274;29;20041;-79
2021/07/26 03:35:53;;;;;;;41.90;11.70;;;;;;;20.11;52.73;95287.88;4962485;23;20043;-79
2021/07/26 03:38:22;;;;;;;30.90;8.77;;;;;;;20.16;52.39;95287.03;4958313;28;20558;-80
2021/07/26 03:40:47;;;;;;;21.92;8.18;;;;;;;20.19;52.43;95287.28;4958124;29;20031;-80
2021/07/26 03:43:13;;;;;;;25.85;9.00;;;;;;;20.26;52.23;95297.50;4958865;28;20036;-80
2021/07/26 03:45:38;;;;;;;29.23;8.70;;;;;;;20.28;52.12;95298.00;4941808;29;20037;-80
2021/07/26 03:48:04;;;;;;;39.08;9.73;;;;;;;20.33;52.29;95298.72;4941266;29;20487;-79
2021/07/26 03:52:56;;;;;;;47.35;12.32;;;;;;;20.54;51.88;95301.97;4964097;23;20047;-79
2021/07/26 03:55:27;;;;;;;34.58;11.10;;;;;;;20.70;51.53;95307.06;4957741;29;20043;-79
2021/07/26 03:57:52;;;;;;;49.80;10.65;;;;;;;20.83;51.23;95312.47;4958213;23;20419;-79
2021/07/26 04:00:20;;;;;;;36.22;10.07;;;;;;;20.97;50.88;95310.66;4956970;29;20031;-79
2021/07/26 04:05:55;;;;;;;43.80;18.20;;;;;;;21.32;50.25;95311.31;4934602;28;20047;-79
2021/07/26 04:08:25;;;;;;;58.30;14.43;;;;;;;21.45;49.98;95304.47;4933470;29;20054;-79
2021/07/26 04:11:04;;;;;;;65.60;15.60;;;;;;;21.62;49.69;95306.59;4955881;29;20027;-79
2021/07/26 04:13:33;;;;;;;63.75;14.00;;;;;;;22.28;47.58;95306.28;4957251;29;20039;-79
2021/07/26 04:15:58;;;;;;;43.10;17.17;;;;;;;23.24;45.47;95308.88;4960095;23;20074;-79
2021/07/26 04:18:25;;;;;;;69.65;21.65;;;;;;;24.26;42.93;95295.81;4938554;29;20031;-80
2021/07/26 04:20:51;;;;;;;51.15;21.77;;;;;;;25.12;41.34;95296.09;4941398;29;20045;-79
2021/07/26 04:23:17;;;;;;;74.53;21.67;;;;;;;25.95;39.80;95305.78;4937059;29;20039;-79
2021/07/26 04:25:43;;;;;;;51.40;18.95;;;;;;;26.84;37.69;95309.38;4941042;29;20032;-79
2021/07/26 04:28:08;;;;;;;40.40;17.15;;;;;;;27.76;35.83;95301.38;4941864;29;20028;-79
2021/07/26 04:30:34;;;;;;;21.27;10.70;;;;;;;28.60;33.95;95297.34;4939966;29;20064;-79
2021/07/26 04:32:59;;;;;;;22.33;10.15;;;;;;;29.47;32.88;95298.84;4940196;29;20039;-79
2021/07/26 04:35:25;;;;;;;35.58;9.65;;;;;;;30.37;31.68;95311.59;4922902;29;20131;-79
2021/07/26 04:37:56;;;;;;;22.85;8.68;;;;;;;31.29;29.72;95309.53;4939832;29;20095;-79
2021/07/26 04:40:21;;;;;;;14.48;6.53;;;;;;;32.06;28.48;95323.00;4936415;29;20358;-79
2021/07/26 04:42:47;;;;;;;15.35;6.45;;;;;;;32.89;26.68;95315.19;4937012;29;20048;-79
2021/07/26 04:45:12;;;;;;;10.23;5.25;;;;;;;33.59;25.59;95313.84;4957814;23;20365;-79
2021/07/26 04:47:44;;;;;;;20.15;4.63;;;;;;;34.37;24.35;95316.66;4944788;29;20106;-79
2021/07/26 04:50:10;;;;;;;13.60;4.15;;;;;;;35.18;23.24;95325.41;4953668;23;20063;-80
2021/07/26 04:52:35;;;;;;;16.65;5.25;;;;;;;35.71;22.50;95327.63;5004819;23;20055;-80
2021/07/26 04:55:01;;;;;;;10.20;4.22;;;;;;;36.37;21.35;95322.03;4939349;29;20087;-80
2021/07/26 04:57:26;;;;;;;8.30;4.38;;;;;;;37.32;20.39;95330.56;4939534;29;20043;-79
2021/07/26 04:59:52;;;;;;;17.88;5.10;;;;;;;38.03;19.52;95325.63;4941324;29;20035;-79
2021/07/26 05:02:17;;;;;;;11.38;4.63;;;;;;;38.70;18.98;95326.41;4936448;29;20559;-79
2021/07/26 05:04:43;;;;;;;9.40;4.40;;;;;;;39.42;18.19;95319.13;4941194;29;20039;-79
2021/07/26 05:07:08;;;;;;;14.48;4.60;;;;;;;39.84;17.60;95315.13;4941107;29;20042;-79
2021/07/26 05:09:38;;;;;;;12.07;4.95;;;;;;;40.44;16.79;95321.75;4941988;29;20086;-81
2021/07/26 05:12:05;;;;;;;15.13;4.50;;;;;;;41.01;16.62;95331.78;4939379;29;20039;-80
2021/07/26 05:14:31;;;;;;;20.88;5.60;;;;;;;41.46;15.95;95325.13;4940083;29;20091;-80
2021/07/26 05:16:56;;;;;;;17.08;4.32;;;;;;;42.06;15.31;95321.19;4940907;29;20032;-80
2021/07/26 05:19:22;;;;;;;16.42;4.55;;;;;;;42.63;14.90;95322.66;4941638;29;20513;-80
2021/07/26 05:21:47;;;;;;;14.63;4.50;;;;;;;43.16;14.53;95328.78;4941543;29;20050;-80
2021/07/26 05:24:13;;;;;;;21.40;5.28;;;;;;;43.39;14.38;95323.09;4941302;29;20028;-80
2021/07/26 05:26:44;;;;;;;9.20;4.72;;;;;;;43.41;14.07;95323.44;4940891;29;20036;-80
2021/07/26 05:29:10;;;;;;;20.25;5.20;;;;;;;43.95;13.79;95332.94;4937954;29;20039;-80
2021/07/26 05:31:35;;;;;;;30.02;5.68;;;;;;;44.42;13.60;95330.31;4939662;29;20055;-80
2021/07/26 05:34:01;;;;;;;13.50;5.20;;;;;;;44.94;13.23;95334.59;4941549;29;20031;-80
2021/07/26 05:36:26;;;;;;;18.33;5.22;;;;;;;45.44;12.76;95349.38;4941116;29;20614;-85
2021/07/26 05:38:52;;;;;;;16.90;4.22;;;;;;;45.82;12.69;95334.69;4941105;29;20678;-85
2021/07/26 05:41:27;;;;;;;14.50;4.40;;;;;;;46.24;12.43;95337.84;4942106;29;20031;-84
2021/07/26 05:43:52;;;;;;;10.13;4.30;;;;;;;46.76;11.25;95344.47;4927554;29;20043;-81
2021/07/26 05:46:30;;;;;;;15.15;4.15;;;;;;;46.68;11.38;95343.97;4944534;29;20042;-83
2021/07/26 05:48:55;;;;;;;18.33;4.82;;;;;;;47.12;10.89;95338.28;4949706;23;20079;-79
2021/07/26 05:51:21;;;;;;;18.13;3.78;;;;;;;47.53;10.96;95346.00;4970231;23;20051;-79
2021/07/26 05:53:46;;;;;;;11.40;3.92;;;;;;;47.86;10.38;95345.31;4960235;29;20164;-79
2021/07/26 05:56:12;;;;;;;16.83;4.10;;;;;;;48.09;10.44;95335.63;4945370;23;20487;-80
2021/07/26 05:58:49;;;;;;;13.13;4.05;;;;;;;48.42;10.28;95335.66;4980675;23;20112;-80
2021/07/26 06:06:31;;;;;;;13.45;4.47;;;;;;;48.48;9.85;95346.81;4965380;23;20047;-80
2021/07/26 06:08:56;;;;;;;9.88;4.20;;;;;;;48.21;9.93;95336.66;4959204;29;20035;-80
2021/07/26 06:11:22;;;;;;;9.55;4.03;;;;;;;48.62;10.02;95338.66;4973989;23;20039;-80
2021/07/26 06:13:47;;;;;;;10.80;4.40;;;;;;;48.87;9.96;95339.44;4957428;29;20122;-80
2021/07/26 06:16:12;;;;;;;10.13;3.78;;;;;;;48.86;9.16;95346.97;4959072;29;20117;-80
2021/07/26 06:18:41;;;;;;;15.40;4.70;;;;;;;48.84;9.64;95343.16;4959704;29;20491;-80
2021/07/26 06:21:07;;;;;;;11.93;4.38;;;;;;;48.74;9.83;95336.16;4939859;29;20039;-80
2021/07/26 06:26:05;;;;;;;17.85;4.18;;;;;;;48.42;10.20;95338.44;5002648;23;20054;-79
2021/07/26 06:28:30;;;;;;;15.73;4.20;;;;;;;48.00;10.14;95332.88;4959158;28;20118;-79
2021/07/26 06:30:55;;;;;;;7.28;3.80;;;;;;;47.57;10.84;95328.53;4958852;28;20035;-78
2021/07/26 06:33:21;;;;;;;16.30;4.43;;;;;;;47.50;10.79;95330.34;4958827;28;20027;-80
2021/07/26 06:35:46;;;;;;;14.23;4.03;;;;;;;46.89;11.41;95326.63;4970158;23;20118;-79
2021/07/26 06:38:12;;;;;;;14.63;4.22;;;;;;;47.20;10.56;95328.53;4963631;23;20499;-80
2021/07/26 06:43:13;;;;;;;10.73;3.72;;;;;;;46.71;11.10;95326.56;4963958;23;20483;-81
2021/07/26 06:45:38;;;;;;;17.60;3.97;;;;;;;46.90;11.14;95313.63;4959142;29;20035;-79
2021/07/26 06:48:04;;;;;;;12.63;3.67;;;;;;;46.46;10.69;95332.31;4959229;29;20031;-80
2021/07/26 06:50:29;;;;;;;13.00;3.88;;;;;;;46.05;11.75;95331.50;4925256;29;20500;-79
2021/07/26 06:52:55;;;;;;;7.95;3.20;;;;;;;45.27;12.07;95323.31;4910347;29;20035;-79
2021/07/26 06:55:20;;;;;;;8.52;3.65;;;;;;;44.32;12.98;95312.25;4941916;29;20031;-81
2021/07/26 06:57:49;;;;;;;12.68;3.63;;;;;;;43.83;13.06;95309.78;4925153;29;20034;-78
2021/07/26 07:00:15;;;;;;;14.70;3.60;;;;;;;43.24;14.13;95312.94;4971286;23;20182;-79
2021/07/26 07:02:43;;;;;;;11.07;3.70;;;;;;;43.00;13.89;95306.94;4958583;29;20039;-81
2021/07/26 07:05:09;;;;;;;13.20;3.00;;;;;;;42.61;14.73;95307.88;4958644;29;20027;-81
2021/07/26 07:07:34;;;;;;;15.40;3.40;;;;;;;42.26;14.67;95310.22;4945279;23;20054;-80
2021/07/26 07:10:00;;;;;;;17.30;3.30;;;;;;;41.90;14.94;95307.47;4958066;29;20035;-80
2021/07/26 07:12:25;;;;;;;14.23;3.35;;;;;;;41.45;14.79;95309.94;4957831;29;20023;-80
2021/07/26 07:14:51;;;;;;;5.95;3.05;;;;;;;40.67;15.45;95310.09;4958649;29;20035;-80
2021/07/26 07:17:16;;;;;;;17.52;2.88;;;;;;;39.89;16.50;95298.38;4958034;29;20412;-80
2021/07/26 07:19:43;;;;;;;12.07;3.20;;;;;;;39.42;16.94;95302.81;4925797;29;20031;-80
2021/07/26 07:22:09;;;;;;;13.00;3.05;;;;;;;38.88;17.53;95299.06;4922737;29;20042;-80
2021/07/26 07:24:35;;;;;;;11.52;3.22;;;;;;;38.75;18.00;95300.75;4957969;29;20039;-79
2021/07/26 07:27:03;;;;;;;8.77;3.58;;;;;;;38.49;17.64;95308.28;4958524;29;20127;-79
2021/07/26 07:29:29;;;;;;;11.93;3.47;;;;;;;37.97;18.09;95308.22;4957501;29;20035;-79
2021/07/26 07:31:54;;;;;;;12.45;3.47;;;;;;;37.49;18.44;95313.44;4959908;28;20035;-79
2021/07/26 07:34:19;;;;;;;18.23;3.83;;;;;;;37.33;19.15;95310.41;4960774;28;20550;-79
2021/07/26 07:36:46;;;;;;;11.50;3.40;;;;;;;37.23;19.82;95301.84;4959978;29;20027;-79
2021/07/26 07:39:12;;;;;;;13.55;3.75;;;;;;;37.18;19.53;95307.69;4960320;29;20062;-78
2021/07/26 07:41:37;;;;;;;6.70;3.28;;;;;;;37.14;19.97;95303.44;4961041;29;20061;-80
2021/07/26 07:44:03;;;;;;;13.48;3.30;;;;;;;36.49;19.84;95312.78;5009081;23;20050;-79
2021/07/26 07:46:29;;;;;;;12.05;3.40;;;;;;;35.27;21.33;95310.75;4940778;29;20023;-80
2021/07/26 07:48:54;;;;;;;14.63;3.97;;;;;;;35.11;21.79;95309.13;4956155;29;20102;-80
2021/07/26 07:51:20;;;;;;;32.03;4.40;;;;;;;35.14;22.13;95319.19;4957624;29;20031;-80
2021/07/26 07:53:46;;;;;;;10.00;3.92;;;;;;;35.22;22.20;95303.00;4958133;28;20427;-80
2021/07/26 07:56:11;;;;;;;9.35;3.17;;;;;;;35.31;21.90;95308.84;4958515;29;20038;-80
2021/07/26 07:58:37;;;;;;;21.60;3.67;;;;;;;35.19;21.38;95310.72;4958023;29;20027;-82
2021/07/26 08:01:06;;;;;;;14.30;3.63;;;;;;;35.21;21.22;95307.66;4925914;29;20095;-81
2021/07/26 08:03:37;;;;;;;12.23;3.10;;;;;;;35.20;21.89;95301.47;4957988;29;20035;-78
2021/07/26 08:06:03;;;;;;;17.88;3.53;;;;;;;35.06;21.90;95306.00;4958957;29;20023;-79
2021/07/26 08:08:29;;;;;;;21.05;3.50;;;;;;;34.90;21.85;95309.00;4958449;29;20039;-79
2021/07/26 08:10:55;;;;;;;19.90;3.65;;;;;;;34.43;21.83;95307.06;4926586;29;20042;-79
2021/07/26 08:13:21;;;;;;;7.95;3.45;;;;;;;34.24;21.84;95298.00;4960074;28;20035;-80
2021/07/26 08:15:49;;;;;;;15.82;3.30;;;;;;;34.26;22.71;95289.53;4927405;29;20035;-79
2021/07/26 08:18:14;;;;;;;7.25;3.53;;;;;;;34.27;22.55;95286.44;4925427;29;20122;-81
2021/07/26 08:20:40;;;;;;;20.33;3.58;;;;;;;34.08;22.68;95286.66;4940196;29;20042;-80
2021/07/26 08:23:05;;;;;;;7.63;3.20;;;;;;;33.86;22.58;95285.69;4957635;29;20457;-80
2021/07/26 08:25:31;;;;;;;12.15;3.65;;;;;;;33.29;22.72;95282.25;4957615;28;20024;-80
2021/07/26 08:27:59;;;;;;;14.52;3.50;;;;;;;33.32;22.77;95278.81;4940156;29;20043;-80
2021/07/26 08:30:29;;;;;;;10.55;3.75;;;;;;;33.23;22.95;95278.31;4957891;29;20066;-80
2021/07/26 08:32:54;;;;;;;6.47;3.60;;;;;;;32.73;23.93;95277.59;4957555;29;20035;-80
2021/07/26 08:35:20;;;;;;;8.65;3.85;;;;;;;32.77;23.70;95278.44;4939651;29;20039;-80
2021/07/26 08:37:45;;;;;;;22.58;4.20;;;;;;;32.89;23.57;95276.69;4961452;29;20078;-79
2021/07/26 08:40:11;;;;;;;10.75;3.50;;;;;;;33.07;23.65;95280.41;4957900;29;20043;-80
2021/07/26 08:42:37;;;;;;;8.55;3.50;;;;;;;33.11;24.12;95273.94;4957106;28;20050;-80
2021/07/26 08:45:03;;;;;;;13.25;4.03;;;;;;;33.15;24.17;95271.28;4957305;28;20032;-80
2021/07/26 08:47:29;;;;;;;8.73;3.40;;;;;;;33.07;24.33;95277.72;4939820;29;20038;-79
2021/07/26 08:49:59;;;;;;;10.23;3.83;;;;;;;32.79;23.06;95281.53;4924453;29;20106;-80
2021/07/26 08:52:25;;;;;;;8.25;3.45;;;;;;;32.83;24.27;95279.69;4923989;29;20039;-80
2021/07/26 08:54:51;;;;;;;7.70;3.90;;;;;;;32.93;23.93;95277.53;4923921;29;20038;-81
2021/07/26 08:57:17;;;;;;;9.30;4.20;;;;;;;32.98;24.03;95277.97;4955338;29;20675;-80
2021/07/26 08:59:43;;;;;;;11.77;4.40;;;;;;;33.01;24.05;95269.16;4922846;29;20031;-80
2021/07/26 09:02:09;;;;;;;11.35;4.15;;;;;;;33.09;23.58;95272.75;4956949;28;20031;-80
2021/07/26 09:04:34;;;;;;;4.32;3.50;;;;;;;33.14;23.37;95269.72;4957636;28;20411;-80
2021/07/26 09:07:05;;;;;;;18.80;4.03;;;;;;;32.86;23.94;95264.72;4943038;29;20499;-80
2021/07/26 09:09:47;;;;;;;11.25;4.05;;;;;;;32.88;24.76;95267.84;4960636;29;20037;-80
2021/07/26 09:12:36;;;;;;;13.27;4.18;;;;;;;32.91;24.44;95274.41;4911925;29;20062;-80
2021/07/26 09:15:01;;;;;;;6.40;3.72;;;;;;;32.87;24.71;95262.78;4943657;29;20411;-80
2021/07/26 09:17:42;;;;;;;19.05;4.63;;;;;;;32.58;25.17;95272.38;4959093;29;20041;-80
2021/07/26 09:20:08;;;;;;;11.48;3.88;;;;;;;32.41;24.75;95265.56;4943054;29;20114;-80
2021/07/26 09:22:35;;;;;;;5.32;3.92;;;;;;;32.36;24.82;95258.53;4960318;29;20396;-80
2021/07/26 09:25:20;;;;;;;21.02;4.28;;;;;;;32.20;25.35;95263.25;4927696;29;20035;-80
2021/07/26 09:27:54;;;;;;;21.50;4.55;;;;;;;31.99;25.80;95263.66;4966191;29;20031;-78
2021/07/26 09:30:20;;;;;;;12.38;4.70;;;;;;;32.06;25.90;95263.03;4971488;28;20039;-78
2021/07/26 09:32:45;;;;;;;9.27;4.10;;;;;;;32.20;25.56;95261.34;4952616;29;20038;-78
2021/07/26 09:35:11;;;;;;;8.50;4.63;;;;;;;32.34;25.67;95258.13;4926811;29;20499;-80
2021/07/26 09:37:37;;;;;;;10.48;4.30;;;;;;;32.34;25.40;95260.81;4964685;28;20027;-80
2021/07/26 09:40:22;;;;;;;12.25;4.60;;;;;;;32.52;26.17;95255.72;4941297;29;20031;-80
2021/07/26 09:42:50;;;;;;;17.67;4.65;;;;;;;32.47;24.85;95266.81;4958405;29;20041;-80
2021/07/26 09:45:20;;;;;;;23.23;4.45;;;;;;;32.47;25.37;95261.41;4959502;29;20565;-80
2021/07/26 09:48:09;;;;;;;11.80;3.97;;;;;;;32.52;24.91;95266.50;4960816;28;20042;-80
2021/07/26 09:50:48;;;;;;;16.95;5.00;;;;;;;32.56;25.72;95251.19;4925790;29;20123;-80
2021/07/26 09:53:23;;;;;;;13.77;4.70;;;;;;;32.59;26.17;95258.53;4942395;29;20034;-79
2021/07/26 09:55:53;;;;;;;10.40;4.35;;;;;;;32.42;25.16;95261.72;4959189;29;20110;-80
2021/07/26 09:58:21;;;;;;;11.88;4.25;;;;;;;32.36;25.26;95258.53;4959258;29;20427;-80
2021/07/26 10:00:46;;;;;;;10.48;4.25;;;;;;;32.07;25.52;95265.34;4926775;29;20019;-80
2021/07/26 10:05:41;;;;;;;14.73;4.32;;;;;;;32.04;25.72;95267.97;4980078;23;20523;-80
2021/07/26 10:08:07;;;;;;;8.40;4.40;;;;;;;32.04;26.12;95266.06;4958831;29;20043;-80
2021/07/26 10:10:34;;;;;;;12.07;4.57;;;;;;;32.06;25.90;95263.81;4959150;29;20031;-80
2021/07/26 10:12:59;;;;;;;14.43;4.78;;;;;;;32.08;25.89;95258.84;4925796;29;20518;-80
2021/07/26 10:15:25;;;;;;;10.68;4.93;;;;;;;32.14;26.39;95262.00;4939642;29;20042;-80
2021/07/26 10:17:51;;;;;;;9.98;4.35;;;;;;;32.14;26.26;95262.78;4958347;28;20035;-80
2021/07/26 10:20:21;;;;;;;11.93;4.78;;;;;;;32.19;25.76;95259.78;4958610;29;20031;-81
2021/07/26 10:22:55;;;;;;;32.17;5.00;;;;;;;32.23;26.32;95263.31;4941035;29;20024;-80
2021/07/26 10:25:32;;;;;;;15.82;5.20;;;;;;;32.11;26.44;95255.44;4941429;29;20027;-80
2021/07/26 10:27:59;;;;;;;26.08;5.43;;;;;;;32.05;26.45;95250.69;4926547;29;20083;-80
2021/07/26 10:30:35;;;;;;;12.38;5.47;;;;;;;32.02;26.16;95246.03;4942011;29;20038;-81
2021/07/26 10:33:01;;;;;;;10.10;4.53;;;;;;;32.05;25.99;95239.91;4927114;29;20062;-80
2021/07/26 10:35:37;;;;;;;16.95;5.28;;;;;;;32.14;26.01;95232.41;4929241;29;20035;-80
2021/07/26 10:38:04;;;;;;;14.02;5.32;;;;;;;32.16;26.70;95230.91;4910695;29;20042;-81
2021/07/26 10:40:30;;;;;;;13.23;5.45;;;;;;;31.86;26.11;95238.06;4940915;29;20027;-80
2021/07/26 10:43:02;;;;;;;15.75;5.72;;;;;;;31.53;26.54;95239.34;4957007;29;20035;-80
2021/07/26 10:45:31;;;;;;;11.18;5.07;;;;;;;31.58;26.04;95244.47;4958824;29;20035;-80
2021/07/26 10:50:50;;;;;;;10.32;5.50;;;;;;;31.46;26.97;95230.41;4958987;29;20046;-80
2021/07/26 10:53:34;;;;;;;18.95;5.15;;;;;;;31.47;27.41;95237.31;4959090;28;20031;-80
2021/07/26 10:56:04;;;;;;;11.57;5.10;;;;;;;31.61;27.22;95242.97;4941822;29;20098;-80
2021/07/26 10:58:38;;;;;;;9.48;4.88;;;;;;;31.64;26.76;95229.59;4941359;29;20023;-80
2021/07/26 11:01:19;;;;;;;21.00;5.43;;;;;;;31.66;27.46;95232.69;4958003;29;20039;-80
2021/07/26 11:03:45;;;;;;;15.00;5.72;;;;;;;31.52;27.03;95229.75;4957914;28;20043;-80
2021/07/26 11:06:10;;;;;;;18.05;5.43;;;;;;;31.46;27.34;95231.16;4958522;29;20050;-80
2021/07/26 11:08:36;;;;;;;20.88;6.30;;;;;;;31.52;27.06;95224.38;4941860;29;20038;-81
2021/07/26 11:11:05;;;;;;;15.07;5.85;;;;;;;31.45;27.68;95224.25;4929692;23;20058;-80
2021/07/26 11:13:49;;;;;;;17.13;5.00;;;;;;;31.38;27.25;95224.09;4941571;29;20114;-80
2021/07/26 11:16:14;;;;;;;20.20;5.18;;;;;;;31.30;27.38;95222.41;4958553;29;20027;-80
2021/07/26 11:18:41;;;;;;;9.68;5.22;;;;;;;31.29;27.30;95220.84;4958652;29;20038;-80
2021/07/26 11:21:07;;;;;;;14.82;5.88;;;;;;;31.36;27.77;95216.38;4925473;29;20404;-82
2021/07/26 11:23:51;;;;;;;15.15;5.18;;;;;;;31.25;28.02;95220.00;4956775;29;20045;-80
2021/07/26 11:26:27;;;;;;;13.30;5.47;;;;;;;31.08;27.74;95221.19;4940803;29;20122;-80
2021/07/26 11:29:01;;;;;;;15.00;6.18;;;;;;;31.03;28.07;95214.16;4957040;28;20192;-80
2021/07/26 11:31:34;;;;;;;9.98;5.15;;;;;;;31.07;28.10;95214.22;4958607;23;20035;-78
2021/07/26 11:34:18;;;;;;;11.60;5.55;;;;;;;31.13;28.00;95217.44;4959443;29;20456;-80
2021/07/26 11:37:07;;;;;;;22.35;6.50;;;;;;;31.14;28.25;95208.22;4958065;29;20483;-80
2021/07/26 11:39:48;;;;;;;12.00;5.32;;;;;;;31.22;28.45;95209.94;4958001;29;20047;-80
2021/07/26 11:42:15;;;;;;;14.75;5.95;;;;;;;31.29;28.16;95204.72;4957747;29;20122;-80
2021/07/26 11:44:42;;;;;;;14.52;5.47;;;;;;;31.38;27.85;95202.59;4941544;29;20121;-80
2021/07/26 11:47:14;;;;;;;13.95;6.05;;;;;;;31.48;28.04;95193.97;4940328;29;20035;-79
2021/07/26 11:49:49;;;;;;;17.20;5.63;;;;;;;31.60;27.26;95204.56;4962421;23;20044;-80
2021/07/26 11:52:15;;;;;;;19.15;5.88;;;;;;;31.71;27.51;95193.97;4956886;29;20039;-80